createdAt,value
2019-02-04T00:01:00.534Z,6.47
2019-02-04T00:03:28.684Z,6.40
2019-02-04T00:05:56.871Z,6.93
2019-02-04T00:08:25.725Z,5.93
2019-02-04T00:10:53.935Z,6.60
2019-02-04T00:13:22.038Z,6.67
2019-02-04T00:15:50.301Z,6.03
2019-02-04T00:18:18.572Z,6.23
2019-02-04T00:20:46.691Z,5.90
2019-02-04T00:23:14.899Z,6.17
2019-02-04T00:25:42.996Z,5.90
2019-02-04T00:28:11.222Z,6.30
2019-02-04T00:30:39.426Z,6.10
2019-02-04T00:33:07.620Z,6.03
2019-02-04T00:35:35.837Z,5.90
2019-02-04T00:38:04.117Z,6.57
2019-02-04T00:40:32.680Z,6.13
2019-02-04T00:43:01.037Z,6.10
2019-02-04T00:45:29.092Z,6.60
2019-02-04T00:47:57.196Z,6.43
2019-02-04T00:50:25.645Z,5.90
2019-02-04T00:52:54.172Z,5.97
2019-02-04T00:55:22.907Z,6.27
2019-02-04T00:57:51.009Z,6.13
2019-02-04T01:00:23.234Z,6.37
2019-02-04T01:02:51.625Z,6.00
2019-02-04T01:05:20.334Z,6.17
2019-02-04T01:07:48.957Z,6.20
2019-02-04T01:10:20.931Z,5.90
2019-02-04T01:12:50.240Z,6.40
2019-02-04T01:15:18.404Z,6.13
2019-02-04T01:17:47.269Z,6.00
2019-02-04T01:20:29.839Z,7.00
2019-02-04T01:22:58.419Z,6.07
2019-02-04T01:25:26.742Z,6.50
2019-02-04T01:27:54.910Z,6.50
2019-02-04T01:30:23.213Z,6.10
2019-02-04T01:32:51.418Z,5.73
2019-02-04T01:35:19.731Z,5.67
2019-02-04T01:37:48.603Z,5.93
2019-02-04T01:40:24.725Z,6.03
2019-02-04T01:42:53.470Z,5.90
2019-02-04T01:45:22.922Z,5.90
2019-02-04T01:47:50.949Z,6.00
2019-02-04T01:50:21.849Z,6.53
2019-02-04T01:52:50.309Z,6.57
2019-02-04T01:55:18.525Z,6.30
2019-02-04T01:57:52.763Z,6.37
2019-02-04T02:00:40.306Z,5.57
2019-02-04T02:03:08.498Z,6.93
2019-02-04T02:05:36.895Z,5.57
2019-02-04T02:08:04.936Z,6.13
2019-02-04T02:10:33.086Z,5.83
2019-02-04T02:13:01.518Z,6.53
2019-02-04T02:15:30.438Z,6.17
2019-02-04T02:17:58.567Z,5.70
2019-02-04T02:20:28.727Z,6.33
2019-02-04T02:22:57.194Z,5.97
2019-02-04T02:25:25.271Z,6.70
2019-02-04T02:27:53.359Z,5.70
2019-02-04T02:30:30.514Z,6.13
2019-02-04T02:33:01.682Z,6.03
2019-02-04T02:35:30.233Z,6.27
2019-02-04T02:37:58.756Z,5.53
2019-02-04T02:40:34.173Z,5.70
2019-02-04T02:43:04.005Z,5.83
2019-02-04T02:45:32.236Z,6.70
2019-02-04T02:48:00.356Z,6.20
2019-02-04T02:50:28.675Z,6.30
2019-02-04T02:52:56.915Z,6.57
2019-02-04T02:55:25.221Z,6.60
2019-02-04T02:57:56.054Z,6.20
2019-02-04T03:00:27.567Z,6.17
2019-02-04T03:02:57.179Z,6.37
2019-02-04T03:05:26.783Z,6.37
2019-02-04T03:07:55.095Z,7.17
2019-02-04T03:10:30.160Z,6.87
2019-02-04T03:12:58.196Z,6.83
2019-02-04T03:15:27.640Z,6.97
2019-02-04T03:17:55.958Z,7.03
2019-02-04T03:20:24.369Z,8.03
2019-02-04T03:22:52.506Z,6.77
2019-02-04T03:25:21.468Z,7.37
2019-02-04T03:27:49.719Z,7.67
2019-02-04T03:30:30.852Z,7.90
2019-02-04T03:32:59.081Z,7.83
2019-02-04T03:35:27.422Z,8.17
2019-02-04T03:37:55.740Z,7.63
2019-02-04T03:40:27.116Z,7.93
2019-02-04T03:42:55.578Z,8.47
2019-02-04T03:45:23.851Z,8.30
2019-02-04T03:48:04.451Z,8.43
2019-02-04T03:50:22.732Z,8.23
2019-02-04T03:52:51.256Z,8.40
2019-02-04T03:55:19.573Z,8.30
2019-02-04T03:57:47.802Z,8.17
2019-02-04T04:00:22.391Z,8.83
2019-02-04T04:02:52.582Z,9.00
2019-02-04T04:05:20.654Z,8.87
2019-02-04T04:07:48.929Z,9.27
2019-02-04T04:10:17.689Z,9.20
2019-02-04T04:12:46.015Z,8.83
2019-02-04T04:15:14.790Z,8.80
2019-02-04T04:17:43.064Z,8.13
2019-02-04T04:20:14.159Z,8.00
2019-02-04T04:22:42.287Z,8.57
2019-02-04T04:25:13.013Z,8.33
2019-02-04T04:27:41.170Z,8.83
2019-02-04T04:30:21.555Z,7.83
2019-02-04T04:32:49.687Z,9.00
2019-02-04T04:35:19.984Z,8.43
2019-02-04T04:37:48.177Z,7.73
2019-02-04T04:40:16.596Z,7.83
2019-02-04T04:42:44.946Z,8.60
2019-02-04T04:45:16.305Z,7.97
2019-02-04T04:47:44.453Z,7.07
2019-02-04T04:50:12.910Z,7.63
2019-02-04T04:52:41.665Z,6.90
2019-02-04T04:55:13.018Z,6.80
2019-02-04T04:57:41.262Z,7.13
2019-02-04T05:00:16.636Z,7.40
2019-02-04T05:02:45.027Z,6.67
2019-02-04T05:05:13.616Z,7.07
2019-02-04T05:07:42.840Z,6.90
2019-02-04T05:10:14.363Z,6.87
2019-02-04T05:12:42.556Z,6.80
2019-02-04T05:15:14.105Z,7.37
2019-02-04T05:17:42.213Z,7.23
2019-02-04T05:20:11.243Z,7.00
2019-02-04T05:22:39.393Z,6.80
2019-02-04T05:25:07.611Z,7.03
2019-02-04T05:27:35.774Z,7.40
2019-02-04T05:30:05.930Z,7.07
2019-02-04T05:32:34.071Z,7.17
2019-02-04T05:35:02.286Z,6.90
2019-02-04T05:37:30.345Z,7.87
2019-02-04T05:39:58.440Z,7.17
2019-02-04T05:42:26.531Z,7.53
2019-02-04T05:44:55.941Z,7.37
2019-02-04T05:47:24.417Z,8.23
2019-02-04T05:49:52.635Z,7.10
2019-02-04T05:52:20.767Z,8.00
2019-02-04T05:54:48.823Z,7.93
2019-02-04T05:57:16.883Z,8.23
2019-02-04T05:59:44.962Z,7.80
2019-02-04T06:02:13.503Z,8.57
2019-02-04T06:04:41.522Z,7.53
2019-02-04T06:07:09.673Z,7.23
2019-02-04T06:09:37.842Z,7.97
2019-02-04T06:12:06.159Z,8.63
2019-02-04T06:14:34.211Z,7.03
2019-02-04T06:17:02.444Z,7.73
2019-02-04T06:19:30.567Z,7.33
2019-02-04T06:21:58.678Z,7.77
2019-02-04T06:24:26.937Z,7.60
2019-02-04T06:26:55.114Z,7.43
2019-02-04T06:29:23.253Z,7.43
2019-02-04T06:31:51.449Z,7.53
2019-02-04T06:34:20.010Z,6.87
2019-02-04T06:36:49.452Z,8.37
2019-02-04T06:39:17.656Z,7.60
2019-02-04T06:41:45.810Z,7.47
2019-02-04T06:44:14.093Z,6.87
2019-02-04T06:46:42.119Z,7.43
2019-02-04T06:49:12.569Z,7.73
2019-02-04T06:51:40.456Z,7.47
2019-02-04T06:54:08.679Z,7.43
2019-02-04T06:56:39.353Z,7.63
2019-02-04T06:59:07.592Z,7.50
2019-02-04T07:01:35.751Z,8.63
2019-02-04T07:04:04.643Z,8.07
2019-02-04T07:06:33.294Z,7.63
2019-02-04T07:09:01.449Z,8.13
2019-02-04T07:11:31.931Z,8.77
2019-02-04T07:14:00.199Z,9.07
2019-02-04T07:16:28.386Z,8.73
2019-02-04T07:18:56.710Z,9.70
2019-02-04T07:21:27.898Z,9.10
2019-02-04T07:23:56.178Z,9.43
2019-02-04T07:26:24.501Z,9.57
2019-02-04T07:28:52.665Z,9.40
2019-02-04T07:31:21.099Z,10.90
2019-02-04T07:33:49.289Z,10.07
2019-02-04T07:36:17.901Z,10.70
2019-02-04T07:38:47.034Z,10.73
2019-02-04T07:41:15.380Z,11.83
2019-02-04T07:43:44.856Z,10.50
2019-02-04T07:46:13.089Z,11.53
2019-02-04T07:48:41.209Z,13.43
2019-02-04T07:51:09.305Z,13.37
2019-02-04T07:53:37.406Z,12.70
2019-02-04T07:56:05.554Z,13.60
2019-02-04T07:58:33.665Z,13.13
2019-02-04T08:01:01.846Z,14.20
2019-02-04T08:03:29.895Z,14.93
2019-02-04T08:05:57.952Z,15.47
2019-02-04T08:08:26.348Z,15.40
2019-02-04T08:10:54.440Z,15.37
2019-02-04T08:13:22.600Z,14.97
2019-02-04T08:15:50.788Z,14.97
2019-02-04T08:18:19.009Z,15.60
2019-02-04T08:20:47.252Z,15.70
2019-02-04T08:23:15.506Z,15.03
2019-02-04T08:25:43.746Z,15.53
2019-02-04T08:28:11.856Z,15.43
2019-02-04T08:30:40.192Z,17.30
2019-02-04T08:33:08.301Z,17.33
2019-02-04T08:35:36.888Z,16.03
2019-02-04T08:38:05.448Z,16.97
2019-02-04T08:40:34.204Z,16.67
2019-02-04T08:43:02.476Z,16.40
2019-02-04T08:45:30.684Z,17.10
2019-02-04T08:47:58.919Z,17.40
2019-02-04T08:50:27.365Z,17.07
2019-02-04T08:52:55.678Z,16.03
2019-02-04T08:55:23.959Z,17.83
2019-02-04T08:57:52.658Z,18.77
2019-02-04T09:00:21.554Z,16.93
2019-02-04T09:02:51.332Z,17.57
2019-02-04T09:05:20.085Z,18.33
2019-02-04T09:07:48.380Z,20.17
2019-02-04T09:10:21.497Z,18.80
2019-02-04T09:12:50.014Z,18.83
2019-02-04T09:15:18.509Z,19.07
2019-02-04T09:17:46.787Z,20.10
2019-02-04T09:20:16.286Z,19.97
2019-02-04T09:22:45.534Z,19.93
2019-02-04T09:25:15.213Z,19.83
2019-02-04T09:27:43.578Z,20.40
2019-02-04T09:30:16.319Z,19.80
2019-02-04T09:32:44.447Z,20.70
2019-02-04T09:35:14.425Z,20.00
2019-02-04T09:37:43.672Z,18.73
2019-02-04T09:40:17.185Z,19.03
2019-02-04T09:42:45.547Z,20.13
2019-02-04T09:45:15.230Z,19.23
2019-02-04T09:47:43.916Z,20.03
2019-02-04T09:50:21.756Z,19.87
2019-02-04T09:52:45.808Z,18.97
2019-02-04T09:55:21.051Z,20.10
2019-02-04T09:57:49.247Z,20.73
2019-02-04T10:00:21.671Z,20.33
2019-02-04T10:02:51.873Z,21.07
2019-02-04T10:05:20.710Z,21.37
2019-02-04T10:07:48.903Z,20.50
2019-02-04T10:10:20.125Z,22.53
2019-02-04T10:12:48.306Z,20.63
2019-02-04T10:15:20.265Z,22.13
2019-02-04T10:17:48.566Z,21.47
2019-02-04T10:20:17.410Z,21.13
2019-02-04T10:22:45.628Z,20.77
2019-02-04T10:25:18.542Z,21.00
2019-02-04T10:27:46.872Z,20.67
2019-02-04T10:30:19.057Z,20.97
2019-02-04T10:32:47.490Z,18.97
2019-02-04T10:35:17.499Z,19.77
2019-02-04T10:37:47.410Z,19.83
2019-02-04T10:40:21.472Z,20.33
2019-02-04T10:42:50.100Z,18.70
2019-02-04T10:45:18.830Z,19.20
2019-02-04T10:47:47.186Z,20.13
2019-02-04T10:50:25.196Z,18.47
2019-02-04T10:52:53.481Z,18.03
2019-02-04T10:55:21.719Z,18.37
2019-02-04T10:57:50.075Z,16.70
2019-02-04T11:00:25.407Z,17.83
2019-02-04T11:02:54.126Z,17.73
2019-02-04T11:05:25.428Z,17.30
2019-02-04T11:07:53.722Z,16.97
2019-02-04T11:10:25.400Z,16.70
2019-02-04T11:12:54.688Z,16.43
2019-02-04T11:15:25.631Z,16.47
2019-02-04T11:17:56.545Z,17.43
2019-02-04T11:20:27.168Z,16.40
2019-02-04T11:22:55.765Z,16.43
2019-02-04T11:25:23.989Z,16.83
2019-02-04T11:27:53.924Z,16.73
2019-02-04T11:30:28.422Z,16.17
2019-02-04T11:32:56.914Z,16.23
2019-02-04T11:35:25.374Z,15.30
2019-02-04T11:37:53.671Z,15.23
2019-02-04T11:40:27.203Z,16.87
2019-02-04T11:42:55.732Z,16.10
2019-02-04T11:45:24.381Z,15.97
2019-02-04T11:47:52.904Z,14.63
2019-02-04T11:50:21.567Z,15.30
2019-02-04T11:52:49.673Z,14.80
2019-02-04T11:55:18.032Z,15.40
2019-02-04T11:57:46.368Z,15.50
2019-02-04T12:00:21.096Z,14.63
2019-02-04T12:02:50.007Z,13.83
2019-02-04T12:05:19.531Z,13.80
2019-02-04T12:07:48.239Z,13.60
2019-02-04T12:10:23.282Z,13.80
2019-02-04T12:12:51.499Z,12.30
2019-02-04T12:15:20.590Z,12.90
2019-02-04T12:17:48.905Z,13.27
2019-02-04T12:20:17.576Z,14.20
2019-02-04T12:22:48.443Z,13.90
2019-02-04T12:25:21.883Z,13.47
2019-02-04T12:27:49.944Z,12.60
2019-02-04T12:30:30.921Z,13.20
2019-02-04T12:32:59.195Z,12.03
2019-02-04T12:35:27.455Z,12.73
2019-02-04T12:37:55.900Z,12.77
2019-02-04T12:40:24.292Z,12.93
2019-02-04T12:42:52.923Z,12.10
2019-02-04T12:45:30.092Z,12.80
2019-02-04T12:48:00.673Z,11.63
2019-02-04T12:50:28.236Z,11.77
2019-02-04T12:52:56.505Z,11.07
2019-02-04T12:55:28.438Z,12.27
2019-02-04T12:57:56.840Z,10.93
2019-02-04T13:00:27.146Z,11.40
2019-02-04T13:02:55.660Z,11.40
2019-02-04T13:05:28.066Z,10.67
2019-02-04T13:07:56.323Z,10.03
2019-02-04T13:10:25.141Z,10.77
2019-02-04T13:12:53.397Z,9.87
2019-02-04T13:15:21.667Z,10.33
2019-02-04T13:17:50.225Z,10.27
2019-02-04T13:20:21.559Z,10.30
2019-02-04T13:22:50.098Z,10.27
2019-02-04T13:25:22.017Z,10.17
2019-02-04T13:27:50.515Z,10.23
2019-02-04T13:30:21.161Z,10.20
2019-02-04T13:32:52.005Z,9.67
2019-02-04T13:35:21.056Z,10.40
2019-02-04T13:37:49.491Z,11.37
2019-02-04T13:40:24.424Z,10.43
2019-02-04T13:42:52.818Z,10.40
2019-02-04T13:45:23.159Z,10.13
2019-02-04T13:47:51.771Z,9.10
2019-02-04T13:50:20.458Z,10.30
2019-02-04T13:52:49.543Z,10.20
2019-02-04T13:55:30.228Z,10.30
2019-02-04T13:57:58.394Z,10.47
2019-02-04T14:00:27.419Z,10.23
2019-02-04T14:02:59.371Z,9.60
2019-02-04T14:05:31.107Z,9.33
2019-02-04T14:07:58.643Z,9.63
2019-02-04T14:10:32.777Z,8.83
2019-02-04T14:13:01.019Z,8.60
2019-02-04T14:15:30.213Z,8.90
2019-02-04T14:17:58.996Z,9.70
2019-02-04T14:20:27.158Z,8.73
2019-02-04T14:22:55.533Z,8.40
2019-02-04T14:25:24.138Z,8.13
2019-02-04T14:27:53.333Z,8.47
2019-02-04T14:30:31.543Z,8.73
2019-02-04T14:33:00.001Z,8.27
2019-02-04T14:35:28.559Z,8.13
2019-02-04T14:37:57.140Z,7.27
2019-02-04T14:40:26.566Z,8.63
2019-02-04T14:43:05.973Z,7.83
2019-02-04T14:46:33.134Z,7.60
2019-02-04T14:50:22.952Z,8.20
2019-02-04T14:53:38.359Z,7.97
2019-02-04T14:56:36.840Z,8.00
2019-02-04T14:59:47.768Z,8.07
2019-02-04T15:02:37.287Z,8.10
2019-02-04T15:05:50.620Z,8.17
2019-02-04T15:08:59.293Z,7.70
2019-02-04T15:12:17.279Z,7.33
2019-02-04T15:15:15.158Z,8.50
2019-02-04T15:18:18.097Z,8.60
2019-02-04T15:21:36.180Z,8.47
2019-02-04T15:25:05.746Z,7.50
2019-02-04T15:28:33.144Z,7.47
2019-02-04T15:31:37.945Z,7.53
2019-02-04T15:34:36.270Z,8.00
2019-02-04T15:37:24.343Z,7.73
2019-02-04T15:40:21.265Z,8.07
2019-02-04T15:43:54.222Z,7.87
2019-02-04T15:47:30.564Z,7.57
2019-02-04T15:51:02.201Z,7.47
2019-02-04T15:53:30.277Z,7.23
2019-02-04T15:55:59.628Z,7.00
2019-02-04T15:58:28.111Z,7.50
2019-02-04T16:00:56.282Z,7.97
2019-02-04T16:03:24.464Z,7.90
2019-02-04T16:05:52.685Z,7.87
2019-02-04T16:08:20.796Z,7.53
2019-02-04T16:10:49.188Z,7.87
2019-02-04T16:13:17.523Z,7.50
2019-02-04T16:15:45.819Z,7.70
2019-02-04T16:18:14.207Z,7.73
2019-02-04T16:20:43.020Z,7.47
2019-02-04T16:23:11.475Z,7.57
2019-02-04T16:25:41.904Z,7.37
2019-02-04T16:28:11.150Z,7.93
2019-02-04T16:30:39.503Z,7.40
2019-02-04T16:33:07.733Z,7.33
2019-02-04T16:35:36.005Z,7.17
2019-02-04T16:38:05.043Z,7.13
2019-02-04T16:40:33.309Z,6.77
2019-02-04T16:43:01.360Z,7.43
2019-02-04T16:45:30.384Z,7.87
2019-02-04T16:47:58.587Z,7.90
2019-02-04T16:50:28.101Z,8.40
2019-02-04T16:52:56.946Z,7.70
2019-02-04T16:55:27.991Z,8.23
2019-02-04T16:57:56.166Z,7.20
2019-02-04T17:00:28.087Z,7.67
2019-02-04T17:02:56.718Z,7.80
2019-02-04T17:05:25.337Z,8.03
2019-02-04T17:07:54.042Z,8.10
2019-02-04T17:10:23.028Z,8.40
2019-02-04T17:12:51.416Z,8.37
2019-02-04T17:15:20.893Z,8.43
2019-02-04T17:17:49.027Z,8.57
2019-02-04T17:20:26.675Z,7.77
2019-02-04T17:22:55.037Z,8.23
2019-02-04T17:25:23.387Z,8.40
2019-02-04T17:27:51.438Z,7.83
2019-02-04T17:30:22.435Z,7.83
2019-02-04T17:32:50.743Z,7.47
2019-02-04T17:35:19.227Z,7.10
2019-02-04T17:37:48.934Z,8.30
2019-02-04T17:40:19.776Z,8.23
2019-02-04T17:42:49.182Z,8.07
2019-02-04T17:45:18.058Z,7.67
2019-02-04T17:47:47.773Z,7.97
2019-02-04T17:50:17.847Z,7.53
2019-02-04T17:52:47.071Z,7.97
2019-02-04T17:55:21.577Z,7.73
2019-02-04T17:57:52.790Z,8.17
2019-02-04T18:00:35.137Z,7.27
2019-02-04T18:03:04.854Z,8.00
2019-02-04T18:05:33.089Z,7.80
2019-02-04T18:08:01.566Z,7.07
2019-02-04T18:10:32.304Z,7.30
2019-02-04T18:13:00.920Z,7.80
2019-02-04T18:15:37.237Z,7.93
2019-02-04T18:18:06.316Z,7.80
2019-02-04T18:20:34.712Z,7.77
2019-02-04T18:23:03.694Z,7.53
2019-02-04T18:25:32.446Z,7.10
2019-02-04T18:28:02.911Z,8.10
2019-02-04T18:30:32.416Z,8.10
2019-02-04T18:33:03.470Z,7.73
2019-02-04T18:35:32.412Z,7.70
2019-02-04T18:38:01.470Z,8.50
2019-02-04T18:40:30.153Z,8.60
2019-02-04T18:42:59.599Z,8.07
2019-02-04T18:45:29.798Z,7.87
2019-02-04T18:47:58.313Z,7.93
2019-02-04T18:50:27.528Z,7.07
2019-02-04T18:52:56.286Z,7.77
2019-02-04T18:55:28.421Z,8.03
2019-02-04T18:57:59.756Z,9.13
2019-02-04T19:00:29.836Z,7.90
2019-02-04T19:03:00.308Z,8.67
2019-02-04T19:05:29.912Z,7.80
2019-02-04T19:08:01.158Z,8.67
2019-02-04T19:10:32.950Z,8.60
2019-02-04T19:13:01.920Z,8.10
2019-02-04T19:15:31.022Z,8.10
2019-02-04T19:18:04.431Z,8.27
2019-02-04T19:20:32.801Z,8.37
2019-02-04T19:23:00.889Z,8.20
2019-02-04T19:25:29.268Z,9.07
2019-02-04T19:27:57.469Z,9.23
2019-02-04T19:30:40.677Z,8.93
2019-02-04T19:33:08.824Z,9.70
2019-02-04T19:35:36.902Z,9.37
2019-02-04T19:38:05.137Z,8.77
2019-02-04T19:40:33.531Z,8.27
2019-02-04T19:43:01.682Z,8.33
2019-02-04T19:45:30.116Z,8.50
2019-02-04T19:47:58.444Z,8.67
2019-02-04T19:50:29.438Z,8.93
2019-02-04T19:52:59.796Z,8.50
2019-02-04T19:55:28.102Z,8.67
2019-02-04T19:57:56.300Z,8.00
2019-02-04T20:00:25.054Z,8.27
2019-02-04T20:02:54.210Z,8.30
2019-02-04T20:05:22.955Z,8.20
2019-02-04T20:07:51.447Z,8.27
2019-02-04T20:10:22.679Z,7.83
2019-02-04T20:12:50.884Z,8.07
2019-02-04T20:15:22.465Z,7.40
2019-02-04T20:17:51.001Z,7.50
2019-02-04T20:20:19.070Z,8.00
2019-02-04T20:22:47.234Z,7.97
2019-02-04T20:25:19.085Z,8.07
2019-02-04T20:27:47.469Z,7.67
2019-02-04T20:30:30.032Z,8.03
2019-02-04T20:32:59.090Z,8.67
2019-02-04T20:35:29.858Z,8.47
2019-02-04T20:37:58.247Z,8.07
2019-02-04T20:40:28.827Z,8.90
2019-02-04T20:42:57.055Z,8.63
2019-02-04T20:45:25.372Z,8.30
2019-02-04T20:47:53.660Z,9.00
2019-02-04T20:50:25.408Z,8.90
2019-02-04T20:52:53.506Z,8.50
2019-02-04T20:55:21.613Z,8.53
2019-02-04T20:57:51.775Z,9.00
2019-02-04T21:00:23.332Z,9.07
2019-02-04T21:02:52.837Z,9.03
2019-02-04T21:05:21.148Z,8.37
2019-02-04T21:07:49.357Z,8.83
2019-02-04T21:10:19.721Z,9.10
2019-02-04T21:12:47.957Z,7.83
2019-02-04T21:15:17.831Z,8.43
2019-02-04T21:17:46.142Z,9.50
2019-02-04T21:20:19.936Z,9.37
2019-02-04T21:22:48.172Z,9.27
2019-02-04T21:25:16.502Z,9.20
2019-02-04T21:27:44.608Z,9.03
2019-02-04T21:30:20.624Z,9.10
2019-02-04T21:32:48.744Z,10.15
2019-02-04T21:35:16.836Z,10.30
2019-02-04T21:37:45.107Z,9.93
2019-02-04T21:40:14.152Z,10.03
2019-02-04T21:42:42.682Z,9.70
2019-02-04T21:45:14.093Z,10.73
2019-02-04T21:47:42.326Z,10.03
2019-02-04T21:50:16.106Z,9.80
2019-02-04T21:52:46.779Z,10.00
2019-02-04T21:55:15.472Z,9.17
2019-02-04T21:57:44.542Z,10.32
2019-02-04T22:00:35.470Z,9.47
2019-02-04T22:03:03.775Z,9.80
2019-02-04T22:05:33.392Z,9.30
2019-02-04T22:08:01.895Z,9.73
2019-02-04T22:10:30.397Z,9.87
2019-02-04T22:13:00.462Z,9.33
2019-02-04T22:15:28.527Z,9.77
2019-02-04T22:17:56.979Z,10.20
2019-02-04T22:20:25.208Z,10.83
2019-02-04T22:22:53.804Z,10.53
2019-02-04T22:25:22.980Z,10.60
2019-02-04T22:27:52.507Z,11.13
2019-02-04T22:30:26.161Z,10.60
2019-02-04T22:32:54.670Z,11.03
2019-02-04T22:35:23.974Z,10.80
2019-02-04T22:37:52.325Z,10.70
2019-02-04T22:40:23.858Z,10.80
2019-02-04T22:42:52.494Z,11.50
2019-02-04T22:45:20.887Z,10.77
2019-02-04T22:47:49.119Z,11.40
2019-02-04T22:50:22.840Z,12.83
2019-02-04T22:52:51.152Z,13.10
2019-02-04T22:55:31.007Z,11.37
2019-02-04T22:57:49.930Z,11.50
2019-02-04T23:01:18.317Z,12.00
2019-02-04T23:03:46.824Z,12.87
2019-02-04T23:06:14.923Z,12.83
2019-02-04T23:08:43.393Z,12.83
2019-02-04T23:11:11.532Z,13.10
2019-02-04T23:13:39.758Z,12.93
2019-02-04T23:16:08.075Z,12.97
2019-02-04T23:18:36.303Z,12.30
2019-02-04T23:21:04.771Z,13.67
2019-02-04T23:23:33.071Z,13.33
2019-02-04T23:26:01.166Z,13.50
2019-02-04T23:28:29.533Z,13.77
2019-02-04T23:30:57.741Z,14.57
2019-02-04T23:33:33.973Z,13.47
2019-02-04T23:35:56.106Z,13.07
2019-02-04T23:38:24.492Z,14.23
2019-02-04T23:40:52.676Z,14.87
2019-02-04T23:43:23.966Z,14.83
2019-02-04T23:45:52.221Z,13.93
2019-02-04T23:48:20.411Z,14.67
2019-02-04T23:50:48.597Z,13.47
2019-02-04T23:53:16.757Z,13.73
2019-02-04T23:55:54.326Z,13.97
2019-02-04T23:58:15.137Z,13.80
